GLO1711 SBGO-SBBR
Flight info
| Callsign | GLO1711 |
|---|---|
| Flight time | 0h 22m |
| Altitude | 15000 |
| Route | LODUV Z15 PAJEM DCT |
| Aircraft | B737/M-SDFGIKLORWXY/LB1 |
Departure
| Time | 2026-04-28 15:19 |
|---|---|
| Airport | Santa Genoveva International Airport (SBGO) |
Arrival
| Time | 2026-04-28 15:41 |
|---|---|
| Airport | Presidente Juscelino Kubitschek International Airport (SBBR) |
| Time | Latitude | Longitude | Altitude | Speed | Heading |
|---|---|---|---|---|---|
| 2026-04-28 15:03 | -16.62978 | -49.21537 | 2459 ft | 0 kts | 64° |
| 2026-04-28 15:06 | -16.62981 | -49.21544 | 2357 ft | 4 kts | 63° |
| 2026-04-28 15:06 | -16.62994 | -49.21568 | 2455 ft | 4 kts | 63° |
| 2026-04-28 15:07 | -16.63001 | -49.21586 | 2457 ft | 2 kts | 77° |
| 2026-04-28 15:07 | -16.63001 | -49.21598 | 2459 ft | 2 kts | 128° |
| 2026-04-28 15:07 | -16.62991 | -49.21606 | 2459 ft | 3 kts | 153° |
| 2026-04-28 15:07 | -16.62968 | -49.21617 | 2459 ft | 4 kts | 155° |
| 2026-04-28 15:08 | -16.62943 | -49.21629 | 2462 ft | 4 kts | 155° |
| 2026-04-28 15:08 | -16.62918 | -49.21641 | 2459 ft | 4 kts | 155° |
| 2026-04-28 15:08 | -16.62893 | -49.21653 | 2462 ft | 4 kts | 155° |
| 2026-04-28 15:08 | -16.62892 | -49.21653 | 2462 ft | 0 kts | 155° |
| 2026-04-28 15:13 | -16.62893 | -49.21653 | 2462 ft | 0 kts | 155° |
| 2026-04-28 15:13 | -16.62900 | -49.21650 | 2463 ft | 2 kts | 154° |
| 2026-04-28 15:13 | -16.62911 | -49.21644 | 2459 ft | 2 kts | 153° |
| 2026-04-28 15:13 | -16.62938 | -49.21630 | 2461 ft | 5 kts | 154° |
| 2026-04-28 15:14 | -16.62973 | -49.21614 | 2459 ft | 5 kts | 157° |
| 2026-04-28 15:14 | -16.63006 | -49.21598 | 2462 ft | 5 kts | 153° |
| 2026-04-28 15:14 | -16.63041 | -49.21576 | 2459 ft | 6 kts | 147° |
| 2026-04-28 15:14 | -16.63077 | -49.21548 | 2459 ft | 7 kts | 137° |
| 2026-04-28 15:15 | -16.63113 | -49.21510 | 2463 ft | 8 kts | 133° |
| 2026-04-28 15:15 | -16.63149 | -49.21461 | 2460 ft | 9 kts | 123° |
| 2026-04-28 15:15 | -16.63183 | -49.21401 | 2461 ft | 10 kts | 120° |
| 2026-04-28 15:15 | -16.63220 | -49.21335 | 2464 ft | 11 kts | 120° |
| 2026-04-28 15:16 | -16.63259 | -49.21266 | 2464 ft | 11 kts | 120° |
| 2026-04-28 15:16 | -16.63301 | -49.21192 | 2462 ft | 12 kts | 121° |
| 2026-04-28 15:16 | -16.63345 | -49.21114 | 2462 ft | 13 kts | 120° |
| 2026-04-28 15:16 | -16.63401 | -49.21042 | 2461 ft | 13 kts | 147° |
| 2026-04-28 15:17 | -16.63486 | -49.21013 | 2463 ft | 13 kts | 165° |
| 2026-04-28 15:17 | -16.63571 | -49.21001 | 2461 ft | 12 kts | 195° |
| 2026-04-28 15:17 | -16.63644 | -49.21046 | 2465 ft | 12 kts | 226° |
| 2026-04-28 15:17 | -16.63709 | -49.21085 | 2465 ft | 11 kts | 205° |
| 2026-04-28 15:18 | -16.63752 | -49.21122 | 2461 ft | 5 kts | 260° |
| 2026-04-28 15:18 | -16.63739 | -49.21153 | 2463 ft | 5 kts | 302° |
| 2026-04-28 15:18 | -16.63682 | -49.21249 | 2463 ft | 52 kts | 300° |
| 2026-04-28 15:18 | -16.63347 | -49.21846 | 2459 ft | 136 kts | 300° |
| 2026-04-28 15:19 | -16.62756 | -49.22896 | 2631 ft | 189 kts | 303° |
| 2026-04-28 15:19 | -16.62105 | -49.24070 | 3818 ft | 187 kts | 302° |
| 2026-04-28 15:19 | -16.61439 | -49.25283 | 4684 ft | 208 kts | 302° |
| 2026-04-28 15:19 | -16.60642 | -49.26695 | 5142 ft | 243 kts | 308° |
| 2026-04-28 15:20 | -16.59242 | -49.27738 | 5798 ft | 253 kts | 349° |
| 2026-04-28 15:20 | -16.57543 | -49.27655 | 6827 ft | 245 kts | 25° |
| 2026-04-28 15:20 | -16.56220 | -49.26574 | 7719 ft | 247 kts | 54° |
| 2026-04-28 15:20 | -16.55320 | -49.24950 | 8293 ft | 272 kts | 65° |
| 2026-04-28 15:21 | -16.54567 | -49.23099 | 9219 ft | 282 kts | 67° |
| 2026-04-28 15:21 | -16.53832 | -49.21165 | 10158 ft | 291 kts | 68° |
| 2026-04-28 15:21 | -16.53088 | -49.19141 | 10779 ft | 311 kts | 69° |
| 2026-04-28 15:21 | -16.52292 | -49.17011 | 11408 ft | 324 kts | 68° |
| 2026-04-28 15:22 | -16.51450 | -49.14821 | 12390 ft | 324 kts | 68° |
| 2026-04-28 15:22 | -16.50597 | -49.12656 | 13525 ft | 322 kts | 68° |
| 2026-04-28 15:22 | -16.49735 | -49.10502 | 14477 ft | 322 kts | 67° |
| 2026-04-28 15:22 | -16.48865 | -49.08355 | 14844 ft | 320 kts | 66° |
| 2026-04-28 15:23 | -16.47995 | -49.06217 | 15029 ft | 320 kts | 66° |
| 2026-04-28 15:23 | -16.47121 | -49.04082 | 15064 ft | 320 kts | 66° |
| 2026-04-28 15:23 | -16.46245 | -49.01944 | 15103 ft | 321 kts | 66° |
| 2026-04-28 15:23 | -16.45376 | -48.99826 | 15115 ft | 323 kts | 66° |
| 2026-04-28 15:24 | -16.44490 | -48.97669 | 15125 ft | 323 kts | 66° |
| 2026-04-28 15:24 | -16.43602 | -48.95512 | 15129 ft | 323 kts | 66° |
| 2026-04-28 15:24 | -16.42716 | -48.93355 | 15134 ft | 323 kts | 66° |
| 2026-04-28 15:24 | -16.41830 | -48.91198 | 15142 ft | 323 kts | 66° |
| 2026-04-28 15:25 | -16.40944 | -48.89045 | 15132 ft | 323 kts | 66° |
| 2026-04-28 15:25 | -16.40072 | -48.86923 | 15126 ft | 322 kts | 66° |
| 2026-04-28 15:25 | -16.39190 | -48.84783 | 15127 ft | 321 kts | 66° |
| 2026-04-28 15:25 | -16.38310 | -48.82650 | 15121 ft | 320 kts | 66° |
| 2026-04-28 15:26 | -16.37321 | -48.80568 | 15114 ft | 319 kts | 58° |
| 2026-04-28 15:26 | -16.36121 | -48.78630 | 15119 ft | 318 kts | 56° |
| 2026-04-28 15:26 | -16.34892 | -48.76717 | 15107 ft | 318 kts | 56° |
| 2026-04-28 15:26 | -16.33658 | -48.74804 | 15112 ft | 318 kts | 56° |
| 2026-04-28 15:27 | -16.32444 | -48.72910 | 15101 ft | 318 kts | 56° |
| 2026-04-28 15:27 | -16.31220 | -48.70989 | 15105 ft | 318 kts | 56° |
| 2026-04-28 15:27 | -16.29996 | -48.69062 | 15084 ft | 319 kts | 56° |
| 2026-04-28 15:27 | -16.28772 | -48.67132 | 15088 ft | 319 kts | 56° |
| 2026-04-28 15:28 | -16.27547 | -48.65195 | 15070 ft | 320 kts | 56° |
| 2026-04-28 15:28 | -16.26736 | -48.63912 | 15066 ft | 319 kts | 56° |
| 2026-04-28 15:28 | -16.24059 | -48.59681 | 15038 ft | 315 kts | 57° |
| 2026-04-28 15:29 | -16.22895 | -48.57783 | 15037 ft | 313 kts | 57° |
| 2026-04-28 15:29 | -16.21336 | -48.55192 | 14766 ft | 318 kts | 58° |
| 2026-04-28 15:29 | -16.20560 | -48.53897 | 14554 ft | 320 kts | 58° |
| 2026-04-28 15:29 | -16.19381 | -48.51928 | 14164 ft | 320 kts | 58° |
| 2026-04-28 15:30 | -16.18203 | -48.49967 | 13757 ft | 319 kts | 58° |
| 2026-04-28 15:30 | -16.16641 | -48.47378 | 13143 ft | 318 kts | 58° |
| 2026-04-28 15:30 | -16.15847 | -48.46063 | 12846 ft | 317 kts | 58° |
| 2026-04-28 15:30 | -16.14678 | -48.44126 | 12411 ft | 315 kts | 58° |
| 2026-04-28 15:31 | -16.13527 | -48.42219 | 12001 ft | 313 kts | 58° |
| 2026-04-28 15:31 | -16.12369 | -48.40297 | 11574 ft | 312 kts | 58° |
| 2026-04-28 15:31 | -16.11216 | -48.38386 | 11165 ft | 311 kts | 58° |
| 2026-04-28 15:31 | -16.10068 | -48.36485 | 10736 ft | 309 kts | 58° |
| 2026-04-28 15:32 | -16.08926 | -48.34587 | 10320 ft | 307 kts | 58° |
| 2026-04-28 15:32 | -16.07805 | -48.32730 | 10144 ft | 298 kts | 57° |
| 2026-04-28 15:32 | -16.06725 | -48.30947 | 9948 ft | 288 kts | 58° |
| 2026-04-28 15:32 | -16.05683 | -48.29226 | 9678 ft | 280 kts | 58° |
| 2026-04-28 15:33 | -16.04625 | -48.27474 | 9116 ft | 287 kts | 58° |
| 2026-04-28 15:33 | -16.03562 | -48.25713 | 8689 ft | 287 kts | 58° |
| 2026-04-28 15:33 | -16.02500 | -48.23959 | 8283 ft | 286 kts | 58° |
| 2026-04-28 15:33 | -16.01445 | -48.22216 | 7936 ft | 284 kts | 58° |
| 2026-04-28 15:34 | -16.00406 | -48.20496 | 7545 ft | 285 kts | 58° |
| 2026-04-28 15:34 | -15.99165 | -48.18896 | 7124 ft | 287 kts | 39° |
| 2026-04-28 15:34 | -15.97449 | -48.17903 | 7054 ft | 278 kts | 20° |
| 2026-04-28 15:34 | -15.95585 | -48.17406 | 6863 ft | 274 kts | 13° |
| 2026-04-28 15:35 | -15.93734 | -48.17031 | 6752 ft | 265 kts | 13° |
| 2026-04-28 15:35 | -15.90288 | -48.16316 | 6524 ft | 240 kts | 16° |
| 2026-04-28 15:35 | -15.88920 | -48.15515 | 6452 ft | 215 kts | 53° |
| 2026-04-28 15:36 | -15.88346 | -48.14166 | 6474 ft | 197 kts | 73° |
| 2026-04-28 15:36 | -15.87999 | -48.12833 | 6438 ft | 185 kts | 77° |
| 2026-04-28 15:36 | -15.87748 | -48.11584 | 6438 ft | 170 kts | 79° |
| 2026-04-28 15:36 | -15.87555 | -48.10362 | 6358 ft | 172 kts | 83° |
| 2026-04-28 15:37 | -15.87432 | -48.09137 | 6300 ft | 172 kts | 85° |
| 2026-04-28 15:37 | -15.87343 | -48.07948 | 6237 ft | 161 kts | 84° |
| 2026-04-28 15:37 | -15.87261 | -48.06745 | 6030 ft | 170 kts | 85° |
| 2026-04-28 15:37 | -15.87181 | -48.05521 | 5826 ft | 169 kts | 85° |
| 2026-04-28 15:38 | -15.87105 | -48.04334 | 5642 ft | 155 kts | 84° |
| 2026-04-28 15:38 | -15.87036 | -48.03265 | 5413 ft | 142 kts | 83° |
| 2026-04-28 15:38 | -15.86971 | -48.02255 | 5263 ft | 138 kts | 84° |
| 2026-04-28 15:38 | -15.86907 | -48.01281 | 5090 ft | 135 kts | 84° |
| 2026-04-28 15:39 | -15.86843 | -48.00301 | 4900 ft | 135 kts | 85° |
| 2026-04-28 15:39 | -15.86779 | -47.99328 | 4757 ft | 137 kts | 85° |
| 2026-04-28 15:39 | -15.86712 | -47.98297 | 4557 ft | 145 kts | 85° |
| 2026-04-28 15:39 | -15.86648 | -47.97264 | 4399 ft | 142 kts | 85° |
| 2026-04-28 15:40 | -15.86582 | -47.96265 | 4187 ft | 138 kts | 85° |
| 2026-04-28 15:40 | -15.86520 | -47.95293 | 4001 ft | 131 kts | 83° |
| 2026-04-28 15:40 | -15.86460 | -47.94362 | 3830 ft | 132 kts | 86° |
| 2026-04-28 15:40 | -15.86395 | -47.93366 | 3638 ft | 142 kts | 84° |
| 2026-04-28 15:41 | -15.86332 | -47.92350 | 3484 ft | 137 kts | 86° |
| 2026-04-28 15:41 | -15.86274 | -47.91446 | 3463 ft | 111 kts | 86° |
| 2026-04-28 15:41 | -15.86242 | -47.90922 | 3476 ft | 34 kts | 97° |
| 2026-04-28 15:41 | -15.86284 | -47.90822 | 3479 ft | 5 kts | 126° |
| 2026-04-28 15:42 | -15.86307 | -47.90792 | 3481 ft | 5 kts | 129° |
| 2026-04-28 15:42 | -15.86331 | -47.90763 | 3481 ft | 5 kts | 131° |
| 2026-04-28 15:42 | -15.86356 | -47.90735 | 3479 ft | 5 kts | 134° |
| 2026-04-28 15:42 | -15.86380 | -47.90708 | 3481 ft | 5 kts | 129° |
| 2026-04-28 15:43 | -15.86410 | -47.90709 | 3483 ft | 5 kts | 224° |
| 2026-04-28 15:43 | -15.86421 | -47.90754 | 3483 ft | 8 kts | 265° |
| 2026-04-28 15:43 | -15.86426 | -47.90830 | 3481 ft | 13 kts | 265° |
| 2026-04-28 15:43 | -15.86434 | -47.90944 | 3476 ft | 19 kts | 266° |
| 2026-04-28 15:44 | -15.86443 | -47.91100 | 3470 ft | 24 kts | 266° |
| 2026-04-28 15:44 | -15.86455 | -47.91270 | 3468 ft | 23 kts | 265° |
| 2026-04-28 15:44 | -15.86464 | -47.91434 | 3465 ft | 22 kts | 266° |
| 2026-04-28 15:44 | -15.86476 | -47.91594 | 3464 ft | 22 kts | 265° |
| 2026-04-28 15:45 | -15.86484 | -47.91748 | 3467 ft | 21 kts | 266° |
| 2026-04-28 15:45 | -15.86547 | -47.91812 | 3469 ft | 14 kts | 175° |
| 2026-04-28 15:45 | -15.86612 | -47.91844 | 3470 ft | 6 kts | 226° |
| 2026-04-28 15:45 | -15.86641 | -47.91849 | 3470 ft | 4 kts | 172° |
| 2026-04-28 15:46 | -15.86670 | -47.91846 | 3471 ft | 4 kts | 175° |
| 2026-04-28 15:46 | -15.86698 | -47.91844 | 3471 ft | 4 kts | 176° |
| 2026-04-28 15:46 | -15.86708 | -47.91844 | 3471 ft | 0 kts | 175° |
| 2026-04-28 15:46 | -15.86709 | -47.91844 | 3471 ft | 0 kts | 175° |